| time (UTC) | temp F | wind direction | speed knots | gust knots | rain 1hr in | rain 24hr in | rain mn in | humidity % | barometer mb |
| 20260508053520 | 35 | 204 | 0.0 | 0.0 | 0.00 | 0.00 | 0.00 | 99 | 1017.0 |
| 20260508053019 | 35 | 204 | 0.0 | 0.0 | 0.00 | 0.00 | 0.00 | 99 | 1017.1 |
| 20260508052515 | 35 | 204 | 0.0 | 0.0 | 0.00 | 0.00 | 0.00 | 99 | 1017.2 |
| 20260508052011 | 35 | 204 | 0.0 | 0.0 | 0.00 | 0.00 | 0.00 | 99 | 1017.1 |
| 20260508051508 | 35 | 204 | 0.0 | 0.0 | 0.00 | 0.00 | 0.00 | 99 | 1017.0 |
| 20260508051003 | 35 | 204 | 0.0 | 0.0 | 0.00 | 0.00 | 0.00 | 98 | 1017.1 |
| 20260508050500 | 35 | 204 | 0.0 | 0.0 | 0.00 | 0.00 | 0.00 | 98 | 1017.0 |
| 20260508045956 | 36 | 204 | 0.0 | 0.0 | 0.00 | 0.00 | 0.00 | 98 | 1017.2 |
| 20260508045454 | 36 | 204 | 0.0 | 0.0 | 0.00 | 0.00 | 0.00 | 98 | 1017.1 |
| 20260508044951 | 36 | 204 | 0.0 | 0.0 | 0.00 | 0.00 | 0.00 | 98 | 1017.2 |
| 20260508044448 | 36 | 204 | 0.0 | 0.0 | 0.00 | 0.00 | 0.00 | 98 | 1017.2 |
| 20260508043943 | 36 | 204 | 0.0 | 0.0 | 0.00 | 0.00 | 0.00 | 97 | 1017.2 |
| 20260508043441 | 37 | 204 | 0.0 | 0.0 | 0.00 | 0.00 | 0.00 | 97 | 1017.2 |
| 20260508042937 | 37 | 204 | 0.0 | 0.0 | 0.00 | 0.00 | 0.00 | 97 | 1017.1 |
| 20260508042435 | 37 | 204 | 0.0 | 0.0 | 0.00 | 0.00 | 0.00 | 97 | 1017.2 |
| 20260508041932 | 37 | 204 | 0.0 | 0.9 | 0.00 | 0.00 | 0.00 | 97 | 1016.9 |
| 20260508041428 | 37 | 204 | 0.0 | 0.0 | 0.00 | 0.00 | 0.00 | 96 | 1017.1 |
| 20260508040925 | 37 | 204 | 0.0 | 0.0 | 0.00 | 0.00 | 0.00 | 96 | 1017.0 |
| 20260508040423 | 38 | 204 | 0.0 | 0.0 | 0.00 | 0.00 | 0.00 | 96 | 1016.7 |
| 20260508035920 | 38 | 204 | 0.0 | 0.0 | 0.00 | 0.12 | 0.12 | 95 | 1017.1 |
| 20260508035417 | 38 | 204 | 0.0 | 0.9 | 0.00 | 0.12 | 0.12 | 95 | 1016.9 |
| 20260508034913 | 38 | 204 | 0.9 | 0.9 | 0.00 | 0.12 | 0.12 | 94 | 1017.0 |
| 20260508034411 | 39 | 204 | 0.0 | 0.0 | 0.00 | 0.12 | 0.12 | 94 | 1016.8 |
| 20260508033907 | 39 | 204 | 0.0 | 0.0 | 0.00 | 0.12 | 0.12 | 94 | 1016.7 |
| 20260508033406 | 39 | 204 | 0.0 | 0.0 | 0.00 | 0.12 | 0.12 | 93 | 1016.7 |
| 20260508032903 | 39 | 196 | 0.0 | 0.0 | 0.00 | 0.12 | 0.12 | 92 | 1016.8 |
| 20260508032400 | 40 | 186 | 0.0 | 0.0 | 0.00 | 0.12 | 0.12 | 92 | 1016.7 |
| 20260508031857 | 40 | 186 | 0.0 | 0.0 | 0.00 | 0.12 | 0.12 | 90 | 1016.4 |
| 20260508031354 | 40 | 186 | 0.0 | 0.0 | 0.00 | 0.12 | 0.12 | 91 | 1016.5 |
| 20260508030850 | 40 | 185 | 0.0 | 0.0 | 0.00 | 0.12 | 0.12 | 89 | 1016.4 |
| 20260508030347 | 40 | 183 | 0.0 | 0.0 | 0.00 | 0.12 | 0.12 | 89 | 1016.4 |
| 20260508025844 | 40 | 183 | 0.0 | 0.0 | 0.00 | 0.12 | 0.12 | 89 | 1016.4 |
| 20260508025341 | 41 | 183 | 0.0 | 0.0 | 0.00 | 0.12 | 0.12 | 90 | 1016.3 |
| 20260508024838 | 41 | 183 | 0.0 | 0.0 | 0.00 | 0.12 | 0.12 | 89 | 1016.3 |
| 20260508024334 | 41 | 183 | 0.0 | 0.0 | 0.00 | 0.12 | 0.12 | 88 | 1016.4 |
| 20260508023831 | 42 | 183 | 0.0 | 0.0 | 0.00 | 0.12 | 0.12 | 88 | 1016.2 |
| 20260508023328 | 42 | 183 | 0.0 | 0.0 | 0.00 | 0.12 | 0.12 | 87 | 1016.2 |
| 20260508022825 | 42 | 177 | 0.0 | 0.0 | 0.00 | 0.12 | 0.12 | 88 | 1016.1 |
| 20260508022320 | 42 | 176 | 0.0 | 0.0 | 0.00 | 0.12 | 0.12 | 84 | 1016.1 |
| 20260508021818 | 43 | 176 | 0.0 | 0.0 | 0.00 | 0.12 | 0.12 | 82 | 1016.0 |
| 20260508021314 | 43 | 176 | 0.0 | 0.0 | 0.00 | 0.12 | 0.12 | 81 | 1016.0 |
| 20260508020810 | 43 | 177 | 0.0 | 0.0 | 0.00 | 0.12 | 0.12 | 79 | 1016.0 |
| 20260508020308 | 43 | 175 | 0.0 | 0.0 | 0.00 | 0.12 | 0.12 | 75 | 1015.9 |
| 20260508015804 | 44 | 175 | 0.0 | 0.0 | 0.00 | 0.12 | 0.12 | 74 | 1015.8 |
| 20260508015305 | 44 | 175 | 0.0 | 0.0 | 0.00 | 0.12 | 0.12 | 70 | 1015.6 |
| 20260508014759 | 44 | 175 | 0.0 | 0.0 | 0.00 | 0.12 | 0.12 | 70 | 1016.0 |
| 20260508014256 | 44 | 175 | 0.0 | 0.0 | 0.00 | 0.12 | 0.12 | 71 | 1015.6 |
| 20260508013751 | 45 | 175 | 0.0 | 0.0 | 0.00 | 0.12 | 0.12 | 69 | 1015.4 |
| 20260508013248 | 45 | 175 | 0.0 | 0.0 | 0.00 | 0.12 | 0.12 | 69 | 1015.5 |
| 20260508012745 | 45 | 169 | 0.0 | 0.0 | 0.00 | 0.12 | 0.12 | 68 | 1015.5 |
| 20260508012242 | 45 | 172 | 0.0 | 0.0 | 0.00 | 0.12 | 0.12 | 68 | 1015.3 |
| 20260508011740 | 46 | 173 | 0.0 | 0.0 | 0.00 | 0.12 | 0.12 | 68 | 1015.2 |
| 20260508011237 | 46 | 210 | 0.0 | 0.0 | 0.00 | 0.12 | 0.12 | 66 | 1015.0 |
| 20260508010734 | 47 | 202 | 0.0 | 0.0 | 0.00 | 0.12 | 0.12 | 69 | 1015.0 |
| 20260508010232 | 47 | 199 | 0.9 | 0.9 | 0.00 | 0.12 | 0.12 | 64 | 1015.2 |
| 20260508005729 | 47 | 211 | 0.0 | 0.0 | 0.00 | 0.12 | 0.12 | 68 | 1015.0 |
| 20260508005226 | 48 | 225 | 0.0 | 0.0 | 0.00 | 0.12 | 0.12 | 65 | 1014.9 |
| 20260508004721 | 49 | 257 | 0.0 | 0.0 | 0.00 | 0.12 | 0.12 | 61 | 1014.9 |
| 20260508004218 | 48 | 226 | 0.0 | 0.0 | 0.00 | 0.12 | 0.12 | 60 | 1015.0 |
| 20260508003715 | 49 | 220 | 0.0 | 0.0 | 0.00 | 0.12 | 0.12 | 63 | 1014.7 |
| 20260508003212 | 49 | 244 | 0.0 | 0.0 | 0.00 | 0.12 | 0.12 | 60 | 1014.7 |
| 20260508002708 | 50 | 257 | 0.0 | 0.0 | 0.00 | 0.12 | 0.12 | 60 | 1014.7 |
| 20260508002206 | 51 | 262 | 0.0 | 0.9 | 0.00 | 0.12 | 0.12 | 57 | 1014.8 |
| 20260508001701 | 51 | 239 | 0.9 | 0.9 | 0.00 | 0.12 | 0.12 | 57 | 1014.5 |
| 20260508001157 | 52 | 270 | 0.0 | 0.9 | 0.00 | 0.12 | 0.12 | 55 | 1014.6 |
| 20260508000654 | 53 | 258 | 0.9 | 1.7 | 0.00 | 0.12 | 0.12 | 52 | 1014.5 |
| 20260508000151 | 53 | 254 | 1.7 | 1.7 | 0.00 | 0.12 | 0.12 | 50 | 1014.3 |
| 20260507235647 | 53 | 263 | 2.6 | 2.6 | 0.00 | 0.12 | 0.12 | 51 | 1014.3 |
| 20260507235145 | 53 | 244 | 0.0 | 1.7 | 0.00 | 0.12 | 0.12 | 52 | 1014.3 |
| 20260507234642 | 54 | 290 | 0.9 | 2.6 | 0.00 | 0.12 | 0.12 | 49 | 1014.3 |
| 20260507234138 | 54 | 247 | 0.9 | 0.9 | 0.00 | 0.12 | 0.12 | 53 | 1014.3 |
| 20260507233635 | 54 | 256 | 0.9 | 3.5 | 0.00 | 0.12 | 0.12 | 49 | 1014.1 |
| 20260507233134 | 55 | 241 | 1.7 | 3.5 | 0.00 | 0.12 | 0.12 | 48 | 1014.1 |
| 20260507232629 | 55 | 266 | 1.7 | 3.5 | 0.00 | 0.12 | 0.12 | 48 | 1014.0 |
| 20260507232127 | 55 | 252 | 0.9 | 2.6 | 0.00 | 0.12 | 0.12 | 48 | 1014.0 |
| 20260507231623 | 55 | 277 | 1.7 | 2.6 | 0.00 | 0.12 | 0.12 | 50 | 1014.1 |
| 20260507231121 | 55 | 243 | 0.9 | 2.6 | 0.00 | 0.12 | 0.12 | 49 | 1014.0 |
| 20260507230617 | 55 | 270 | 3.5 | 5.2 | 0.00 | 0.12 | 0.12 | 47 | 1013.7 |
| 20260507230114 | 55 | 238 | 1.7 | 2.6 | 0.00 | 0.12 | 0.12 | 53 | 1013.6 |
| 20260507225608 | 55 | 264 | 0.9 | 2.6 | 0.00 | 0.12 | 0.12 | 50 | 1013.6 |
| 20260507225106 | 56 | 231 | 0.9 | 3.5 | 0.00 | 0.12 | 0.12 | 49 | 1013.8 |
| 20260507224601 | 56 | 235 | 2.6 | 6.1 | 0.00 | 0.12 | 0.12 | 47 | 1013.6 |
| 20260507224058 | 57 | 328 | 1.7 | 3.5 | 0.00 | 0.12 | 0.12 | 50 | 1013.8 |
| 20260507223554 | 57 | 263 | 3.5 | 7.0 | 0.00 | 0.12 | 0.12 | 47 | 1013.7 |
| 20260507223051 | 57 | 312 | 3.5 | 6.1 | 0.00 | 0.12 | 0.12 | 47 | 1013.6 |
| 20260507222548 | 57 | 39 | 0.9 | 1.7 | 0.00 | 0.12 | 0.12 | 49 | 1013.5 |
| 20260507222044 | 56 | 309 | 5.2 | 7.8 | 0.00 | 0.12 | 0.12 | 47 | 1013.7 |
| 20260507221541 | 56 | 225 | 1.7 | 1.7 | 0.00 | 0.12 | 0.12 | 50 | 1013.6 |
| 20260507221038 | 57 | 268 | 5.2 | 6.1 | 0.00 | 0.12 | 0.12 | 48 | 1013.5 |
| 20260507220535 | 57 | 4 | 4.3 | 6.1 | 0.00 | 0.12 | 0.12 | 46 | 1013.5 |
| 20260507220032 | 57 | 254 | 3.5 | 5.2 | 0.00 | 0.12 | 0.12 | 46 | 1013.4 |
| 20260507215528 | 58 | 216 | 3.5 | 3.5 | 0.00 | 0.12 | 0.12 | 50 | 1013.4 |
| 20260507215027 | 57 | 249 | 0.9 | 3.5 | 0.00 | 0.12 | 0.12 | 50 | 1013.1 |
| 20260507214523 | 58 | 299 | 3.5 | 6.1 | 0.00 | 0.12 | 0.12 | 45 | 1013.2 |
| 20260507214019 | 58 | 232 | 1.7 | 3.5 | 0.00 | 0.12 | 0.12 | 49 | 1013.1 |
| 20260507213516 | 57 | 217 | 4.3 | 6.1 | 0.00 | 0.12 | 0.12 | 46 | 1013.1 |
| 20260507213013 | 60 | 231 | 4.3 | 6.1 | 0.00 | 0.12 | 0.12 | 47 | 1013.0 |
| 20260507212508 | 60 | 250 | 5.2 | 6.1 | 0.00 | 0.12 | 0.12 | 51 | 1013.0 |
| 20260507212005 | 58 | 261 | 1.7 | 3.5 | 0.00 | 0.12 | 0.12 | 47 | 1013.0 |
| 20260507211502 | 56 | 264 | 2.6 | 2.6 | 0.00 | 0.12 | 0.12 | 49 | 1012.9 |
| 20260507210958 | 56 | 274 | 0.9 | 5.2 | 0.00 | 0.12 | 0.12 | 48 | 1012.9 |
| 20260507210455 | 56 | 215 | 2.6 | 2.6 | 0.00 | 0.12 | 0.12 | 51 | 1012.9 |
| 20260507205952 | 56 | 213 | 2.6 | 6.1 | 0.00 | 0.12 | 0.12 | 49 | 1013.0 |
| 20260507205449 | 58 | 255 | 0.9 | 3.5 | 0.00 | 0.12 | 0.12 | 51 | 1012.9 |
| 20260507204945 | 58 | 285 | 1.7 | 3.5 | 0.00 | 0.12 | 0.12 | 48 | 1012.8 |
| 20260507204442 | 58 | 215 | 3.5 | 5.2 | 0.00 | 0.12 | 0.12 | 47 | 1012.9 |
| 20260507203940 | 61 | 254 | 3.5 | 6.1 | 0.00 | 0.12 | 0.12 | 44 | 1013.0 |
| 20260507203437 | 61 | 285 | 0.9 | 3.5 | 0.00 | 0.12 | 0.12 | 46 | 1012.7 |
| 20260507202934 | 60 | 327 | 0.9 | 6.1 | 0.00 | 0.12 | 0.12 | 44 | 1012.9 |
| 20260507202430 | 61 | 236 | 4.3 | 5.2 | 0.00 | 0.12 | 0.12 | 45 | 1012.9 |
| 20260507201926 | 60 | 278 | 1.7 | 6.1 | 0.00 | 0.12 | 0.12 | 41 | 1012.9 |
| 20260507201421 | 60 | 268 | 2.6 | 2.6 | 0.00 | 0.12 | 0.12 | 50 | 1013.0 |
| 20260507200919 | 57 | 229 | 2.6 | 6.1 | 0.00 | 0.12 | 0.12 | 49 | 1012.9 |
| 20260507200414 | 58 | 235 | 4.3 | 7.0 | 0.00 | 0.12 | 0.12 | 48 | 1013.0 |
| 20260507195910 | 58 | 17 | 2.6 | 5.2 | 0.00 | 0.12 | 0.12 | 48 | 1013.1 |
| 20260507195408 | 57 | 245 | 0.9 | 2.6 | 0.00 | 0.12 | 0.12 | 49 | 1013.3 |
| 20260507194905 | 57 | 220 | 4.3 | 6.1 | 0.00 | 0.12 | 0.12 | 51 | 1013.3 |
| 20260507194401 | 60 | 230 | 4.3 | 6.1 | 0.00 | 0.12 | 0.12 | 46 | 1013.2 |
| 20260507193857 | 60 | 262 | 1.7 | 3.5 | 0.00 | 0.12 | 0.12 | 47 | 1013.3 |
| 20260507193355 | 60 | 230 | 6.1 | 7.8 | 0.00 | 0.12 | 0.12 | 48 | 1013.5 |
| 20260507192851 | 60 | 240 | 1.7 | 5.2 | 0.00 | 0.12 | 0.12 | 56 | 1013.2 |
| 20260507192347 | 58 | 244 | 3.5 | 5.2 | 0.00 | 0.12 | 0.12 | 56 | 1013.5 |
| 20260507191844 | 58 | 248 | 3.5 | 5.2 | 0.00 | 0.12 | 0.12 | 55 | 1013.5 |
| 20260507191340 | 58 | 247 | 0.9 | 5.2 | 0.00 | 0.12 | 0.12 | 54 | 1013.5 |
| 20260507190837 | 58 | 299 | 3.5 | 5.2 | 0.00 | 0.12 | 0.12 | 52 | 1013.5 |
| 20260507190335 | 58 | 275 | 1.7 | 6.1 | 0.00 | 0.12 | 0.12 | 53 | 1013.6 |
| 20260507185834 | 58 | 251 | 1.7 | 7.0 | 0.00 | 0.12 | 0.12 | 53 | 1013.6 |
| 20260507185330 | 60 | 321 | 2.6 | 5.2 | 0.00 | 0.12 | 0.12 | 53 | 1013.4 |
| 20260507184828 | 59 | 213 | 0.9 | 3.5 | 0.00 | 0.12 | 0.12 | 58 | 1013.5 |
| 20260507184326 | 56 | 232 | 1.7 | 2.6 | 0.00 | 0.12 | 0.12 | 56 | 1013.6 |
| 20260507183822 | 58 | 239 | 2.6 | 6.1 | 0.00 | 0.12 | 0.12 | 61 | 1013.6 |
| 20260507183319 | 58 | 306 | 3.5 | 3.5 | 0.00 | 0.12 | 0.12 | 54 | 1013.6 |
| 20260507182817 | 57 | 256 | 0.9 | 3.5 | 0.00 | 0.12 | 0.12 | 56 | 1013.6 |
| 20260507182312 | 55 | 251 | 1.7 | 5.2 | 0.00 | 0.12 | 0.12 | 63 | 1013.8 |
| 20260507181809 | 56 | 220 | 3.5 | 3.5 | 0.00 | 0.12 | 0.12 | 65 | 1013.7 |
| 20260507181305 | 56 | 225 | 0.9 | 1.7 | 0.00 | 0.12 | 0.12 | 58 | 1013.8 |
| 20260507180801 | 56 | 12 | 2.6 | 5.2 | 0.00 | 0.12 | 0.12 | 57 | 1013.7 |
| 20260507180259 | 56 | 285 | 0.9 | 1.7 | 0.00 | 0.12 | 0.12 | 57 | 1013.6 |
| 20260507175754 | 57 | 219 | 6.1 | 7.0 | 0.00 | 0.12 | 0.12 | 58 | 1013.7 |
| 20260507175251 | 58 | 226 | 4.3 | 6.1 | 0.00 | 0.12 | 0.12 | 55 | 1013.7 |
| 20260507174748 | 59 | 225 | 1.7 | 3.5 | 0.00 | 0.12 | 0.12 | 62 | 1013.8 |
| 20260507174246 | 58 | 279 | 4.3 | 5.2 | 0.00 | 0.12 | 0.12 | 59 | 1013.7 |
| 20260507173744 | 59 | 269 | 0.9 | 3.5 | 0.00 | 0.12 | 0.12 | 59 | 1013.8 |
| 20260507173241 | 56 | 245 | 2.6 | 5.2 | 0.00 | 0.12 | 0.12 | 62 | 1014.1 |
| 20260507172737 | 56 | 212 | 1.7 | 3.5 | 0.00 | 0.12 | 0.12 | 65 | 1014.1 |
| 20260507172234 | 57 | 248 | 3.5 | 6.1 | 0.00 | 0.12 | 0.12 | 58 | 1014.1 |
| 20260507171734 | 57 | 257 | 2.6 | 2.6 | 0.00 | 0.12 | 0.12 | 65 | 1014.2 |
| 20260507171232 | 57 | 241 | 2.6 | 6.1 | 0.00 | 0.12 | 0.12 | 67 | 1014.3 |
| 20260507170729 | 57 | 266 | 1.7 | 3.5 | 0.00 | 0.12 | 0.12 | 61 | 1014.2 |
| 20260507170225 | 58 | 46 | 3.5 | 5.2 | 0.00 | 0.12 | 0.12 | 63 | 1014.3 |
| 20260507165721 | 57 | 258 | 1.7 | 2.6 | 0.00 | 0.12 | 0.12 | 62 | 1014.5 |
| 20260507165217 | 56 | 0 | 0.0 | 3.5 | 0.00 | 0.12 | 0.12 | 64 | 1014.6 |
| 20260507164713 | 55 | 291 | 0.9 | 2.6 | 0.00 | 0.12 | 0.12 | 64 | 1014.4 |
| 20260507164211 | 55 | 217 | 0.9 | 1.7 | 0.00 | 0.12 | 0.12 | 66 | 1014.7 |
| 20260507163708 | 56 | 244 | 2.6 | 3.5 | 0.00 | 0.12 | 0.12 | 60 | 1014.6 |
| 20260507163206 | 55 | 184 | 1.7 | 1.7 | 0.00 | 0.12 | 0.12 | 68 | 1014.7 |
| 20260507162702 | 55 | 250 | 2.6 | 3.5 | 0.00 | 0.12 | 0.12 | 66 | 1014.8 |
| 20260507162158 | 55 | 88 | 0.9 | 2.6 | 0.00 | 0.12 | 0.12 | 63 | 1014.8 |
| 20260507161654 | 53 | 282 | 2.6 | 2.6 | 0.00 | 0.12 | 0.12 | 65 | 1014.8 |
| 20260507161150 | 52 | 221 | 1.7 | 3.5 | 0.00 | 0.12 | 0.12 | 68 | 1014.8 |
| 20260507160647 | 54 | 260 | 1.7 | 5.2 | 0.00 | 0.12 | 0.12 | 63 | 1014.9 |
| 20260507160144 | 56 | 275 | 1.7 | 2.6 | 0.00 | 0.12 | 0.12 | 64 | 1015.0 |
| 20260507155639 | 54 | 269 | 2.6 | 2.6 | 0.00 | 0.12 | 0.12 | 65 | 1015.0 |
| 20260507155136 | 54 | 241 | 1.7 | 6.1 | 0.00 | 0.12 | 0.12 | 64 | 1015.0 |
| 20260507154633 | 54 | 234 | 4.3 | 6.1 | 0.00 | 0.12 | 0.12 | 68 | 1015.0 |
| 20260507154131 | 54 | 216 | 1.7 | 3.5 | 0.00 | 0.12 | 0.12 | 67 | 1015.1 |
| 20260507153626 | 56 | 216 | 0.9 | 5.2 | 0.00 | 0.12 | 0.12 | 59 | 1015.2 |
| 20260507153123 | 55 | 226 | 1.7 | 2.6 | 0.00 | 0.12 | 0.12 | 65 | 1015.0 |
| 20260507152620 | 56 | 330 | 0.9 | 1.7 | 0.00 | 0.12 | 0.12 | 57 | 1015.1 |
| 20260507152116 | 55 | 48 | 1.7 | 1.7 | 0.00 | 0.12 | 0.12 | 60 | 1015.1 |
| 20260507151612 | 55 | 246 | 0.0 | 0.9 | 0.00 | 0.12 | 0.12 | 63 | 1015.1 |
| 20260507151109 | 54 | 272 | 2.6 | 2.6 | 0.00 | 0.12 | 0.12 | 63 | 1015.1 |
| 20260507150601 | 53 | 252 | 1.7 | 1.7 | 0.00 | 0.12 | 0.12 | 70 | 1015.1 |
| 20260507150057 | 53 | 200 | 1.7 | 2.6 | 0.00 | 0.12 | 0.12 | 65 | 1015.1 |
| 20260507145552 | 54 | 147 | 0.0 | 0.9 | 0.00 | 0.12 | 0.12 | 66 | 1015.1 |
| 20260507145050 | 53 | 76 | 0.9 | 1.7 | 0.00 | 0.12 | 0.12 | 67 | 1015.1 |
| 20260507144546 | 53 | 286 | 1.7 | 1.7 | 0.00 | 0.12 | 0.12 | 69 | 1015.2 |
| 20260507144044 | 52 | 156 | 0.0 | 0.9 | 0.00 | 0.12 | 0.12 | 76 | 1015.3 |
| 20260507143541 | 52 | 4 | 0.9 | 0.9 | 0.00 | 0.12 | 0.12 | 82 | 1015.4 |
| 20260507143038 | 52 | 206 | 1.7 | 1.7 | 0.00 | 0.12 | 0.12 | 80 | 1015.4 |
| 20260507142533 | 52 | 158 | 0.0 | 1.7 | 0.00 | 0.12 | 0.12 | 79 | 1015.4 |
| 20260507142031 | 51 | 231 | 0.0 | 0.9 | 0.00 | 0.12 | 0.12 | 82 | 1015.6 |
| 20260507141527 | 51 | 270 | 0.0 | 2.6 | 0.00 | 0.12 | 0.12 | 78 | 1015.9 |
| 20260507141024 | 52 | 244 | 0.9 | 1.7 | 0.00 | 0.12 | 0.12 | 74 | 1015.8 |
| 20260507140521 | 51 | 67 | 0.0 | 1.7 | 0.00 | 0.12 | 0.12 | 81 | 1015.9 |
| 20260507140018 | 51 | 249 | 0.0 | 1.7 | 0.00 | 0.12 | 0.12 | 81 | 1015.8 |
| 20260507135514 | 50 | 316 | 0.0 | 0.0 | 0.00 | 0.12 | 0.12 | 82 | 1016.0 |
| 20260507135012 | 49 | 259 | 0.0 | 1.7 | 0.00 | 0.12 | 0.12 | 83 | 1015.9 |
| 20260507134508 | 49 | 223 | 0.0 | 0.0 | 0.00 | 0.12 | 0.12 | 90 | 1016.1 |
| 20260507134004 | 49 | 222 | 0.0 | 0.9 | 0.00 | 0.12 | 0.12 | 90 | 1016.1 |
| 20260507133500 | 48 | 222 | 0.9 | 1.7 | 0.00 | 0.12 | 0.12 | 91 | 1016.1 |
| 20260507132959 | 49 | 228 | 0.9 | 0.9 | 0.00 | 0.12 | 0.12 | 92 | 1016.0 |
| 20260507132454 | 48 | 227 | 0.0 | 0.9 | 0.00 | 0.12 | 0.12 | 93 | 1016.0 |
| 20260507131951 | 47 | 226 | 0.9 | 0.9 | 0.00 | 0.12 | 0.12 | 94 | 1016.1 |
| 20260507131448 | 47 | 214 | 0.0 | 0.9 | 0.00 | 0.12 | 0.12 | 95 | 1016.0 |
| 20260507130945 | 47 | 81 | 0.0 | 0.0 | 0.00 | 0.12 | 0.12 | 98 | 1016.2 |
| 20260507130442 | 47 | 185 | 0.9 | 0.9 | 0.00 | 0.12 | 0.12 | 99 | 1016.2 |
| 20260507125941 | 47 | 175 | 0.0 | 0.9 | 0.00 | 0.12 | 0.12 | 99 | 1016.1 |
| 20260507125438 | 46 | 175 | 0.0 | 0.0 | 0.00 | 0.12 | 0.12 | 99 | 1016.1 |
| 20260507124936 | 46 | 150 | 0.0 | 0.9 | 0.00 | 0.12 | 0.12 | 99 | 1016.1 |
| 20260507124432 | 46 | 174 | 0.0 | 0.0 | 0.00 | 0.12 | 0.12 | 99 | 1016.1 |
| 20260507123930 | 46 | 174 | 0.9 | 0.9 | 0.00 | 0.12 | 0.12 | 99 | 1016.2 |
| 20260507123427 | 46 | 174 | 0.0 | 0.9 | 0.00 | 0.12 | 0.12 | 99 | 1016.1 |
| 20260507122923 | 46 | 174 | 0.0 | 0.0 | 0.00 | 0.12 | 0.12 | 99 | 1016.3 |
| 20260507122418 | 46 | 174 | 0.0 | 0.0 | 0.00 | 0.12 | 0.12 | 99 | 1016.2 |
| 20260507121915 | 46 | 174 | 0.9 | 0.9 | 0.00 | 0.12 | 0.12 | 99 | 1016.3 |
| 20260507121410 | 46 | 174 | 0.0 | 0.9 | 0.00 | 0.12 | 0.12 | 99 | 1016.3 |
| 20260507120908 | 46 | 174 | 0.0 | 0.9 | 0.00 | 0.12 | 0.12 | 99 | 1016.4 |
| 20260507120404 | 46 | 174 | 0.0 | 0.9 | 0.00 | 0.12 | 0.12 | 99 | 1016.1 |
| 20260507115900 | 46 | 174 | 0.9 | 0.9 | 0.00 | 0.12 | 0.12 | 99 | 1016.2 |
| 20260507115356 | 46 | 144 | 0.0 | 0.0 | 0.00 | 0.12 | 0.12 | 99 | 1016.0 |
| 20260507114852 | 46 | 144 | 0.0 | 0.0 | 0.00 | 0.12 | 0.12 | 99 | 1016.0 |
| 20260507114349 | 46 | 144 | 0.0 | 0.0 | 0.00 | 0.12 | 0.12 | 99 | 1016.0 |
| 20260507113846 | 46 | 144 | 0.0 | 0.0 | 0.00 | 0.12 | 0.12 | 99 | 1016.0 |
| 20260507113343 | 46 | 144 | 0.0 | 0.0 | 0.00 | 0.12 | 0.12 | 99 | 1015.6 |
| 20260507112841 | 46 | 144 | 0.0 | 0.0 | 0.00 | 0.12 | 0.12 | 99 | 1015.6 |
| 20260507112338 | 45 | 144 | 0.0 | 0.0 | 0.00 | 0.12 | 0.12 | 99 | 1015.6 |
| 20260507111836 | 45 | 144 | 0.0 | 0.0 | 0.00 | 0.12 | 0.12 | 99 | 1015.4 |
| 20260507111332 | 45 | 144 | 0.0 | 0.0 | 0.00 | 0.12 | 0.12 | 99 | 1015.4 |
| 20260507110828 | 45 | 144 | 0.0 | 0.0 | 0.00 | 0.12 | 0.12 | 99 | 1015.2 |
| 20260507110324 | 45 | 144 | 0.0 | 0.0 | 0.00 | 0.12 | 0.12 | 99 | 1015.3 |
| 20260507105821 | 45 | 144 | 0.0 | 0.0 | 0.00 | 0.12 | 0.12 | 99 | 1015.3 |
| 20260507105318 | 45 | 144 | 0.0 | 0.0 | 0.00 | 0.12 | 0.12 | 99 | 1015.4 |
| 20260507104815 | 45 | 144 | 0.0 | 0.0 | 0.00 | 0.12 | 0.12 | 99 | 1015.4 |
| 20260507104311 | 45 | 144 | 0.0 | 0.0 | 0.00 | 0.12 | 0.12 | 99 | 1015.1 |
| 20260507103807 | 45 | 144 | 0.0 | 0.0 | 0.00 | 0.12 | 0.12 | 99 | 1015.0 |
| 20260507103304 | 45 | 144 | 0.0 | 0.0 | 0.00 | 0.12 | 0.12 | 99 | 1015.2 |
| 20260507102800 | 45 | 144 | 0.0 | 0.0 | 0.00 | 0.12 | 0.12 | 99 | 1015.3 |
| 20260507102257 | 45 | 144 | 0.0 | 0.0 | 0.00 | 0.12 | 0.12 | 99 | 1015.4 |
| 20260507101754 | 45 | 144 | 0.0 | 0.0 | 0.00 | 0.12 | 0.12 | 99 | 1015.2 |
| 20260507101253 | 45 | 144 | 0.0 | 0.0 | 0.00 | 0.12 | 0.12 | 99 | 1015.1 |
| 20260507100751 | 45 | 108 | 0.0 | 0.0 | 0.00 | 0.12 | 0.12 | 99 | 1015.2 |
| 20260507100249 | 45 | 107 | 0.0 | 0.0 | 0.00 | 0.12 | 0.12 | 99 | 1015.2 |
| 20260507095747 | 45 | 94 | 0.0 | 0.0 | 0.00 | 0.12 | 0.12 | 99 | 1015.1 |
| 20260507095243 | 45 | 144 | 0.0 | 0.0 | 0.00 | 0.12 | 0.12 | 99 | 1014.9 |
| 20260507094740 | 45 | 144 | 0.0 | 0.0 | 0.00 | 0.12 | 0.12 | 99 | 1015.1 |
| 20260507094237 | 45 | 144 | 0.0 | 0.0 | 0.00 | 0.12 | 0.12 | 99 | 1015.1 |
| 20260507093734 | 45 | 127 | 0.0 | 0.0 | 0.00 | 0.12 | 0.12 | 99 | 1015.0 |
| 20260507093232 | 45 | 127 | 0.0 | 0.9 | 0.00 | 0.12 | 0.12 | 99 | 1014.9 |
| 20260507092730 | 45 | 112 | 0.9 | 0.9 | 0.00 | 0.12 | 0.12 | 99 | 1014.8 |
| 20260507092225 | 45 | 69 | 1.7 | 1.7 | 0.00 | 0.12 | 0.12 | 99 | 1014.9 |
| 20260507091722 | 45 | 91 | 0.9 | 1.7 | 0.00 | 0.12 | 0.12 | 99 | 1015.1 |
| 20260507091219 | 45 | 85 | 0.9 | 1.7 | 0.00 | 0.12 | 0.12 | 99 | 1014.9 |
| 20260507090714 | 45 | 114 | 0.9 | 1.7 | 0.00 | 0.12 | 0.12 | 99 | 1015.1 |
| 20260507090211 | 45 | 134 | 0.0 | 0.0 | 0.00 | 0.12 | 0.12 | 99 | 1015.0 |
| 20260507085708 | 45 | 134 | 0.0 | 0.0 | 0.00 | 0.12 | 0.12 | 99 | 1015.1 |
| 20260507085205 | 45 | 127 | 0.0 | 0.9 | 0.00 | 0.12 | 0.12 | 99 | 1015.1 |
| 20260507084702 | 45 | 91 | 0.0 | 0.0 | 0.00 | 0.12 | 0.12 | 99 | 1015.2 |
| 20260507084158 | 45 | 75 | 0.0 | 0.0 | 0.00 | 0.12 | 0.12 | 99 | 1015.1 |
| 20260507083655 | 45 | 75 | 0.0 | 0.9 | 0.00 | 0.12 | 0.12 | 99 | 1015.1 |
| 20260507083152 | 45 | 73 | 0.0 | 0.0 | 0.07 | 0.12 | 0.12 | 99 | 1015.2 |
| 20260507082648 | 45 | 71 | 0.0 | 0.9 | 0.07 | 0.12 | 0.12 | 99 | 1015.3 |
| 20260507082144 | 45 | 49 | 0.0 | 2.6 | 0.00 | 0.11 | 0.11 | 99 | 1015.2 |
| 20260507081641 | 45 | 10 | 0.0 | 0.0 | 0.00 | 0.11 | 0.11 | 99 | 1014.9 |
| 20260507081137 | 45 | 9 | 0.9 | 0.9 | 0.00 | 0.11 | 0.11 | 99 | 1015.0 |
| 20260507080634 | 45 | 258 | 0.0 | 0.9 | 0.00 | 0.11 | 0.11 | 99 | 1015.2 |
| 20260507080131 | 45 | 274 | 1.7 | 1.7 | 0.05 | 0.11 | 0.11 | 99 | 1015.1 |
| 20260507075630 | 45 | 259 | 0.9 | 1.7 | 0.05 | 0.11 | 0.11 | 99 | 1015.2 |
| 20260507075127 | 46 | 271 | 1.7 | 2.6 | 0.07 | 0.10 | 0.10 | 99 | 1015.1 |
| 20260507074624 | 47 | 264 | 1.7 | 1.7 | 0.07 | 0.10 | 0.10 | 99 | 1015.0 |
| 20260507074122 | 47 | 21 | 0.9 | 0.9 | 0.05 | 0.09 | 0.09 | 99 | 1014.9 |
| 20260507073618 | 47 | 41 | 0.9 | 0.9 | 0.05 | 0.09 | 0.09 | 99 | 1015.0 |
| 20260507073114 | 47 | 282 | 0.0 | 0.9 | 0.00 | 0.08 | 0.08 | 99 | 1015.0 |
| 20260507072612 | 47 | 337 | 0.0 | 0.9 | 0.00 | 0.08 | 0.08 | 99 | 1015.0 |
| 20260507072109 | 47 | 278 | 0.9 | 0.9 | 0.07 | 0.08 | 0.08 | 99 | 1014.8 |
| 20260507071607 | 47 | 257 | 0.0 | 0.0 | 0.07 | 0.08 | 0.08 | 99 | 1014.8 |
| 20260507071103 | 47 | 258 | 0.0 | 0.9 | 0.00 | 0.07 | 0.07 | 99 | 1014.8 |
| 20260507070600 | 47 | 272 | 0.0 | 1.7 | 0.00 | 0.07 | 0.07 | 99 | 1015.2 |
| 20260507070057 | 47 | 278 | 0.0 | 0.0 | 0.00 | 0.07 | 0.07 | 99 | 1014.8 |
| 20260507065553 | 47 | 283 | 0.0 | 1.7 | 0.07 | 0.07 | 0.07 | 99 | 1015.0 |
| 20260507065051 | 47 | 287 | 0.0 | 0.0 | 0.07 | 0.07 | 0.07 | 99 | 1014.9 |
| 20260507064549 | 47 | 287 | 0.0 | 0.0 | 0.00 | 0.06 | 0.06 | 99 | 1014.8 |
| 20260507064047 | 47 | 8 | 0.0 | 0.0 | 0.00 | 0.06 | 0.06 | 99 | 1014.9 |
| 20260507063544 | 47 | 281 | 0.0 | 0.9 | 0.00 | 0.06 | 0.06 | 99 | 1015.1 |
| 20260507063041 | 47 | 306 | 0.0 | 0.9 | 0.00 | 0.06 | 0.06 | 99 | 1015.1 |
| 20260507062537 | 47 | 319 | 0.0 | 0.0 | 0.05 | 0.06 | 0.06 | 99 | 1014.9 |
| 20260507062035 | 47 | 347 | 0.0 | 0.0 | 0.05 | 0.06 | 0.06 | 99 | 1014.8 |
| 20260507061533 | 47 | 283 | 0.9 | 1.7 | 0.00 | 0.05 | 0.05 | 99 | 1014.8 |
| 20260507061031 | 47 | 323 | 0.0 | 0.9 | 0.07 | 0.05 | 0.05 | 99 | 1015.0 |
| 20260507060528 | 47 | 280 | 0.0 | 0.0 | 0.07 | 0.05 | 0.05 | 99 | 1015.1 |
| 20260507060025 | 47 | 66 | 0.0 | 0.9 | 0.00 | 0.04 | 0.04 | 99 | 1015.2 |
| 20260507055525 | 47 | 60 | 0.0 | 1.7 | 0.05 | 0.04 | 0.04 | 99 | 1015.2 |
| 20260507055022 | 48 | 20 | 0.0 | 0.9 | 0.00 | 0.03 | 0.03 | 99 | 1015.4 |
| 20260507054518 | 48 | 36 | 0.0 | 0.0 | 0.00 | 0.03 | 0.03 | 99 | 1015.4 |
| 20260507054015 | 47 | 357 | 0.0 | 0.0 | 0.00 | 0.03 | 0.03 | 99 | 1015.5 |